sensor_id;sensor_type;location;lat;lon;timestamp;temperature;humidity
67147;DHT22;54061;52.036;5.558;2022-08-19T00:01:07;19.80;82.70
67147;DHT22;54061;52.036;5.558;2022-08-19T00:03:33;19.80;82.60
67147;DHT22;54061;52.036;5.558;2022-08-19T00:05:59;19.90;81.60
67147;DHT22;54061;52.036;5.558;2022-08-19T00:08:25;19.90;81.30
67147;DHT22;54061;52.036;5.558;2022-08-19T00:10:50;20.00;81.10
67147;DHT22;54061;52.036;5.558;2022-08-19T00:13:16;20.00;80.90
67147;DHT22;54061;52.036;5.558;2022-08-19T00:15:41;20.00;80.60
67147;DHT22;54061;52.036;5.558;2022-08-19T00:18:09;20.00;81.30
67147;DHT22;54061;52.036;5.558;2022-08-19T00:20:35;19.90;83.20
67147;DHT22;54061;52.036;5.558;2022-08-19T00:23:00;19.70;81.70
67147;DHT22;54061;52.036;5.558;2022-08-19T00:25:26;19.80;81.50
67147;DHT22;54061;52.036;5.558;2022-08-19T00:27:51;19.80;81.30
67147;DHT22;54061;52.036;5.558;2022-08-19T00:30:17;19.80;80.90
67147;DHT22;54061;52.036;5.558;2022-08-19T00:32:42;19.90;80.80
67147;DHT22;54061;52.036;5.558;2022-08-19T00:35:08;19.90;80.70
67147;DHT22;54061;52.036;5.558;2022-08-19T00:37:34;19.90;80.70
67147;DHT22;54061;52.036;5.558;2022-08-19T00:40:00;19.80;81.10
67147;DHT22;54061;52.036;5.558;2022-08-19T00:42:27;19.80;80.50
67147;DHT22;54061;52.036;5.558;2022-08-19T00:44:53;19.80;80.40
67147;DHT22;54061;52.036;5.558;2022-08-19T00:47:19;19.80;81.20
67147;DHT22;54061;52.036;5.558;2022-08-19T00:49:49;19.60;84.90
67147;DHT22;54061;52.036;5.558;2022-08-19T00:52:18;19.50;83.90
67147;DHT22;54061;52.036;5.558;2022-08-19T00:54:45;19.40;82.40
67147;DHT22;54061;52.036;5.558;2022-08-19T00:57:15;19.40;81.90
67147;DHT22;54061;52.036;5.558;2022-08-19T00:59:42;19.40;81.70
67147;DHT22;54061;52.036;5.558;2022-08-19T01:02:11;19.50;81.70
67147;DHT22;54061;52.036;5.558;2022-08-19T01:04:36;19.50;81.30
67147;DHT22;54061;52.036;5.558;2022-08-19T01:07:02;19.50;81.10
67147;DHT22;54061;52.036;5.558;2022-08-19T01:09:28;19.50;80.90
67147;DHT22;54061;52.036;5.558;2022-08-19T01:11:53;19.50;81.00
67147;DHT22;54061;52.036;5.558;2022-08-19T01:14:19;19.50;80.80
67147;DHT22;54061;52.036;5.558;2022-08-19T01:16:45;19.50;81.90
67147;DHT22;54061;52.036;5.558;2022-08-19T01:19:26;19.30;84.50
67147;DHT22;54061;52.036;5.558;2022-08-19T01:21:55;19.10;83.10
67147;DHT22;54061;52.036;5.558;2022-08-19T01:24:23;19.10;82.50
67147;DHT22;54061;52.036;5.558;2022-08-19T01:26:48;19.10;82.10
67147;DHT22;54061;52.036;5.558;2022-08-19T01:29:13;19.20;82.00
67147;DHT22;54061;52.036;5.558;2022-08-19T01:31:39;19.20;81.70
67147;DHT22;54061;52.036;5.558;2022-08-19T01:34:05;19.20;81.50
67147;DHT22;54061;52.036;5.558;2022-08-19T01:36:35;19.30;81.40
67147;DHT22;54061;52.036;5.558;2022-08-19T01:39:03;19.30;81.30
67147;DHT22;54061;52.036;5.558;2022-08-19T01:41:28;19.30;81.20
67147;DHT22;54061;52.036;5.558;2022-08-19T01:43:54;19.20;81.20
67147;DHT22;54061;52.036;5.558;2022-08-19T01:46:20;19.20;81.50
67147;DHT22;54061;52.036;5.558;2022-08-19T01:48:46;19.20;81.50
67147;DHT22;54061;52.036;5.558;2022-08-19T01:51:12;19.10;80.90
67147;DHT22;54061;52.036;5.558;2022-08-19T01:53:37;19.20;81.00
67147;DHT22;54061;52.036;5.558;2022-08-19T01:56:03;19.10;81.00
67147;DHT22;54061;52.036;5.558;2022-08-19T01:58:34;19.10;80.90
67147;DHT22;54061;52.036;5.558;2022-08-19T02:01:02;19.10;81.10
67147;DHT22;54061;52.036;5.558;2022-08-19T02:03:28;19.10;81.30
67147;DHT22;54061;52.036;5.558;2022-08-19T02:06:03;19.10;81.00
67147;DHT22;54061;52.036;5.558;2022-08-19T02:08:28;19.10;80.90
67147;DHT22;54061;52.036;5.558;2022-08-19T02:10:54;19.00;80.70
67147;DHT22;54061;52.036;5.558;2022-08-19T02:13:20;19.00;80.70
67147;DHT22;54061;52.036;5.558;2022-08-19T02:15:46;19.00;80.80
67147;DHT22;54061;52.036;5.558;2022-08-19T02:18:11;19.00;80.90
67147;DHT22;54061;52.036;5.558;2022-08-19T02:20:37;19.00;81.00
67147;DHT22;54061;52.036;5.558;2022-08-19T02:23:03;18.90;81.00
67147;DHT22;54061;52.036;5.558;2022-08-19T02:25:29;18.90;81.10
67147;DHT22;54061;52.036;5.558;2022-08-19T02:27:54;18.90;81.30
67147;DHT22;54061;52.036;5.558;2022-08-19T02:30:20;18.80;81.20
67147;DHT22;54061;52.036;5.558;2022-08-19T02:32:45;18.80;81.30
67147;DHT22;54061;52.036;5.558;2022-08-19T02:35:12;18.80;81.30
67147;DHT22;54061;52.036;5.558;2022-08-19T02:37:37;18.80;81.30
67147;DHT22;54061;52.036;5.558;2022-08-19T02:40:21;18.70;81.70
67147;DHT22;54061;52.036;5.558;2022-08-19T02:42:47;18.70;81.90
67147;DHT22;54061;52.036;5.558;2022-08-19T02:45:13;18.60;85.40
67147;DHT22;54061;52.036;5.558;2022-08-19T02:47:39;18.40;86.90
67147;DHT22;54061;52.036;5.558;2022-08-19T02:50:05;18.30;84.40
67147;DHT22;54061;52.036;5.558;2022-08-19T02:52:31;18.30;83.90
67147;DHT22;54061;52.036;5.558;2022-08-19T02:54:57;18.30;83.40
67147;DHT22;54061;52.036;5.558;2022-08-19T02:57:23;18.30;84.70
67147;DHT22;54061;52.036;5.558;2022-08-19T02:59:48;18.30;84.60
67147;DHT22;54061;52.036;5.558;2022-08-19T03:02:15;18.20;83.70
67147;DHT22;54061;52.036;5.558;2022-08-19T03:04:40;18.20;83.80
67147;DHT22;54061;52.036;5.558;2022-08-19T03:07:06;18.20;83.30
67147;DHT22;54061;52.036;5.558;2022-08-19T03:09:32;18.30;83.70
67147;DHT22;54061;52.036;5.558;2022-08-19T03:11:57;18.30;83.10
67147;DHT22;54061;52.036;5.558;2022-08-19T03:14:23;18.30;82.80
67147;DHT22;54061;52.036;5.558;2022-08-19T03:16:49;18.30;83.00
67147;DHT22;54061;52.036;5.558;2022-08-19T03:19:16;18.30;82.70
67147;DHT22;54061;52.036;5.558;2022-08-19T03:21:42;18.40;82.80
67147;DHT22;54061;52.036;5.558;2022-08-19T03:24:07;18.40;82.40
67147;DHT22;54061;52.036;5.558;2022-08-19T03:26:33;18.40;82.40
67147;DHT22;54061;52.036;5.558;2022-08-19T03:29:02;18.40;82.20
67147;DHT22;54061;52.036;5.558;2022-08-19T03:31:28;18.40;82.00
67147;DHT22;54061;52.036;5.558;2022-08-19T03:33:54;18.40;82.10
67147;DHT22;54061;52.036;5.558;2022-08-19T03:36:23;18.40;82.40
67147;DHT22;54061;52.036;5.558;2022-08-19T03:38:50;18.30;81.90
67147;DHT22;54061;52.036;5.558;2022-08-19T03:41:17;18.30;82.00
67147;DHT22;54061;52.036;5.558;2022-08-19T03:43:43;18.30;81.90
67147;DHT22;54061;52.036;5.558;2022-08-19T03:46:19;18.30;83.40
67147;DHT22;54061;52.036;5.558;2022-08-19T03:48:45;18.10;82.90
67147;DHT22;54061;52.036;5.558;2022-08-19T03:51:18;18.10;82.40
67147;DHT22;54061;52.036;5.558;2022-08-19T03:53:45;18.20;82.40
67147;DHT22;54061;52.036;5.558;2022-08-19T03:56:10;18.20;82.40
67147;DHT22;54061;52.036;5.558;2022-08-19T03:58:36;18.20;82.50
67147;DHT22;54061;52.036;5.558;2022-08-19T04:01:02;18.20;82.00
67147;DHT22;54061;52.036;5.558;2022-08-19T04:03:31;18.20;82.00
67147;DHT22;54061;52.036;5.558;2022-08-19T04:05:57;18.20;82.20
67147;DHT22;54061;52.036;5.558;2022-08-19T04:08:22;18.20;81.90
67147;DHT22;54061;52.036;5.558;2022-08-19T04:10:48;18.20;82.00
67147;DHT22;54061;52.036;5.558;2022-08-19T04:13:14;18.20;82.00
67147;DHT22;54061;52.036;5.558;2022-08-19T04:15:41;18.20;82.10
67147;DHT22;54061;52.036;5.558;2022-08-19T04:18:08;18.20;82.40
67147;DHT22;54061;52.036;5.558;2022-08-19T04:20:44;18.20;84.30
67147;DHT22;54061;52.036;5.558;2022-08-19T04:23:10;18.10;85.80
67147;DHT22;54061;52.036;5.558;2022-08-19T04:25:39;17.90;88.40
67147;DHT22;54061;52.036;5.558;2022-08-19T04:28:04;17.80;87.00
67147;DHT22;54061;52.036;5.558;2022-08-19T04:30:30;17.80;85.00
67147;DHT22;54061;52.036;5.558;2022-08-19T04:32:55;17.80;84.40
67147;DHT22;54061;52.036;5.558;2022-08-19T04:35:21;17.90;84.20
67147;DHT22;54061;52.036;5.558;2022-08-19T04:37:46;17.90;84.50
67147;DHT22;54061;52.036;5.558;2022-08-19T04:40:12;17.80;88.40
67147;DHT22;54061;52.036;5.558;2022-08-19T04:42:56;17.70;86.70
67147;DHT22;54061;52.036;5.558;2022-08-19T04:45:21;17.70;85.40
67147;DHT22;54061;52.036;5.558;2022-08-19T04:47:47;17.80;84.90
67147;DHT22;54061;52.036;5.558;2022-08-19T04:50:12;17.80;84.90
67147;DHT22;54061;52.036;5.558;2022-08-19T04:52:38;17.80;85.00
67147;DHT22;54061;52.036;5.558;2022-08-19T04:55:07;17.80;84.80
67147;DHT22;54061;52.036;5.558;2022-08-19T04:57:33;17.80;84.70
67147;DHT22;54061;52.036;5.558;2022-08-19T04:59:58;17.80;84.80
67147;DHT22;54061;52.036;5.558;2022-08-19T05:02:24;17.90;84.30
67147;DHT22;54061;52.036;5.558;2022-08-19T05:04:49;17.90;84.10
67147;DHT22;54061;52.036;5.558;2022-08-19T05:07:15;17.90;87.90
67147;DHT22;54061;52.036;5.558;2022-08-19T05:09:41;17.80;86.30
67147;DHT22;54061;52.036;5.558;2022-08-19T05:12:06;17.70;87.90
67147;DHT22;54061;52.036;5.558;2022-08-19T05:14:32;17.60;86.50
67147;DHT22;54061;52.036;5.558;2022-08-19T05:16:57;17.70;86.10
67147;DHT22;54061;52.036;5.558;2022-08-19T05:19:23;17.80;85.80
67147;DHT22;54061;52.036;5.558;2022-08-19T05:22:07;17.90;85.30
67147;DHT22;54061;52.036;5.558;2022-08-19T05:24:51;18.00;85.10
67147;DHT22;54061;52.036;5.558;2022-08-19T05:27:16;18.10;85.00
67147;DHT22;54061;52.036;5.558;2022-08-19T05:29:42;18.10;87.80
67147;DHT22;54061;52.036;5.558;2022-08-19T05:32:07;18.00;90.70
67147;DHT22;54061;52.036;5.558;2022-08-19T05:34:36;18.00;90.30
67147;DHT22;54061;52.036;5.558;2022-08-19T05:37:03;17.90;89.30
67147;DHT22;54061;52.036;5.558;2022-08-19T05:39:30;18.00;87.90
67147;DHT22;54061;52.036;5.558;2022-08-19T05:41:58;18.10;88.70
67147;DHT22;54061;52.036;5.558;2022-08-19T05:44:24;18.10;88.90
67147;DHT22;54061;52.036;5.558;2022-08-19T05:46:50;18.10;91.40
67147;DHT22;54061;52.036;5.558;2022-08-19T05:49:18;18.10;92.20
67147;DHT22;54061;52.036;5.558;2022-08-19T05:51:44;18.10;92.40
67147;DHT22;54061;52.036;5.558;2022-08-19T05:54:09;18.10;92.30
67147;DHT22;54061;52.036;5.558;2022-08-19T05:56:36;18.20;91.80
67147;DHT22;54061;52.036;5.558;2022-08-19T05:59:04;18.30;91.20
67147;DHT22;54061;52.036;5.558;2022-08-19T06:01:36;18.30;92.90
67147;DHT22;54061;52.036;5.558;2022-08-19T06:04:02;18.30;93.80
67147;DHT22;54061;52.036;5.558;2022-08-19T06:06:28;18.20;93.20
67147;DHT22;54061;52.036;5.558;2022-08-19T06:08:53;18.20;93.80
67147;DHT22;54061;52.036;5.558;2022-08-19T06:11:52;18.30;93.60
67147;DHT22;54061;52.036;5.558;2022-08-19T06:14:12;18.30;93.80
67147;DHT22;54061;52.036;5.558;2022-08-19T06:16:39;18.40;94.60
67147;DHT22;54061;52.036;5.558;2022-08-19T06:19:06;18.30;95.20
67147;DHT22;54061;52.036;5.558;2022-08-19T06:21:32;18.40;95.10
67147;DHT22;54061;52.036;5.558;2022-08-19T06:23:58;18.40;95.40
67147;DHT22;54061;52.036;5.558;2022-08-19T06:26:24;18.40;95.40
67147;DHT22;54061;52.036;5.558;2022-08-19T06:28:50;18.50;94.10
67147;DHT22;54061;52.036;5.558;2022-08-19T06:31:16;18.60;93.30
67147;DHT22;54061;52.036;5.558;2022-08-19T06:33:42;18.60;93.60
67147;DHT22;54061;52.036;5.558;2022-08-19T06:36:15;18.70;92.90
67147;DHT22;54061;52.036;5.558;2022-08-19T06:38:41;18.70;94.00
67147;DHT22;54061;52.036;5.558;2022-08-19T06:41:06;18.70;93.20
67147;DHT22;54061;52.036;5.558;2022-08-19T06:43:32;18.80;94.00
67147;DHT22;54061;52.036;5.558;2022-08-19T06:45:57;18.80;93.90
67147;DHT22;54061;52.036;5.558;2022-08-19T06:48:24;18.80;94.00
67147;DHT22;54061;52.036;5.558;2022-08-19T06:50:49;18.80;92.60
67147;DHT22;54061;52.036;5.558;2022-08-19T06:53:16;18.90;93.20
67147;DHT22;54061;52.036;5.558;2022-08-19T06:55:44;18.90;93.20
67147;DHT22;54061;52.036;5.558;2022-08-19T06:58:10;18.90;92.40
67147;DHT22;54061;52.036;5.558;2022-08-19T07:00:36;18.90;94.10
67147;DHT22;54061;52.036;5.558;2022-08-19T07:03:01;18.90;92.90
67147;DHT22;54061;52.036;5.558;2022-08-19T07:05:27;18.90;92.80
67147;DHT22;54061;52.036;5.558;2022-08-19T07:07:53;18.90;92.00
67147;DHT22;54061;52.036;5.558;2022-08-19T07:10:18;19.00;91.60
67147;DHT22;54061;52.036;5.558;2022-08-19T07:12:44;19.10;92.10
67147;DHT22;54061;52.036;5.558;2022-08-19T07:15:10;19.00;91.30
67147;DHT22;54061;52.036;5.558;2022-08-19T07:17:36;19.10;91.10
67147;DHT22;54061;52.036;5.558;2022-08-19T07:20:04;19.10;91.90
67147;DHT22;54061;52.036;5.558;2022-08-19T07:22:30;19.10;90.90
67147;DHT22;54061;52.036;5.558;2022-08-19T07:24:56;19.10;91.70
67147;DHT22;54061;52.036;5.558;2022-08-19T07:27:21;19.20;91.80
67147;DHT22;54061;52.036;5.558;2022-08-19T07:29:47;19.20;91.70
67147;DHT22;54061;52.036;5.558;2022-08-19T07:32:12;19.10;93.30
67147;DHT22;54061;52.036;5.558;2022-08-19T07:34:38;19.00;93.20
67147;DHT22;54061;52.036;5.558;2022-08-19T07:37:04;19.00;92.60
67147;DHT22;54061;52.036;5.558;2022-08-19T07:39:31;19.00;93.70
67147;DHT22;54061;52.036;5.558;2022-08-19T07:41:57;19.00;93.80
67147;DHT22;54061;52.036;5.558;2022-08-19T07:44:23;19.00;93.50
67147;DHT22;54061;52.036;5.558;2022-08-19T07:46:50;19.00;92.90
67147;DHT22;54061;52.036;5.558;2022-08-19T07:49:16;19.10;93.60
67147;DHT22;54061;52.036;5.558;2022-08-19T07:51:53;19.20;92.10
67147;DHT22;54061;52.036;5.558;2022-08-19T07:54:19;19.30;93.10
67147;DHT22;54061;52.036;5.558;2022-08-19T07:56:45;19.40;93.30
67147;DHT22;54061;52.036;5.558;2022-08-19T07:59:10;19.40;92.90
67147;DHT22;54061;52.036;5.558;2022-08-19T08:01:37;19.30;92.60
67147;DHT22;54061;52.036;5.558;2022-08-19T08:04:05;19.40;92.50
67147;DHT22;54061;52.036;5.558;2022-08-19T08:06:49;19.50;91.60
67147;DHT22;54061;52.036;5.558;2022-08-19T08:09:35;19.70;92.50
67147;DHT22;54061;52.036;5.558;2022-08-19T08:12:05;19.70;91.70
67147;DHT22;54061;52.036;5.558;2022-08-19T08:14:33;19.70;91.40
67147;DHT22;54061;52.036;5.558;2022-08-19T08:17:00;19.70;91.30
67147;DHT22;54061;52.036;5.558;2022-08-19T08:19:26;19.90;90.80
67147;DHT22;54061;52.036;5.558;2022-08-19T08:21:53;20.00;90.70
67147;DHT22;54061;52.036;5.558;2022-08-19T08:24:19;19.90;90.80
67147;DHT22;54061;52.036;5.558;2022-08-19T08:26:45;19.90;91.00
67147;DHT22;54061;52.036;5.558;2022-08-19T08:29:13;20.10;90.20
67147;DHT22;54061;52.036;5.558;2022-08-19T08:31:41;20.20;90.50
67147;DHT22;54061;52.036;5.558;2022-08-19T08:34:07;20.40;89.70
67147;DHT22;54061;52.036;5.558;2022-08-19T08:36:35;20.50;89.20
67147;DHT22;54061;52.036;5.558;2022-08-19T08:39:01;20.30;88.70
67147;DHT22;54061;52.036;5.558;2022-08-19T08:44:23;20.60;88.20
67147;DHT22;54061;52.036;5.558;2022-08-19T08:46:50;20.90;87.00
67147;DHT22;54061;52.036;5.558;2022-08-19T08:51:52;20.90;87.10
67147;DHT22;54061;52.036;5.558;2022-08-19T08:54:20;20.80;85.70
67147;DHT22;54061;52.036;5.558;2022-08-19T08:56:50;21.00;85.40
67147;DHT22;54061;52.036;5.558;2022-08-19T08:59:21;21.10;84.30
67147;DHT22;54061;52.036;5.558;2022-08-19T09:01:49;21.20;86.50
67147;DHT22;54061;52.036;5.558;2022-08-19T09:04:15;21.20;85.70
67147;DHT22;54061;52.036;5.558;2022-08-19T09:06:50;21.20;85.40
67147;DHT22;54061;52.036;5.558;2022-08-19T09:09:18;21.00;86.30
67147;DHT22;54061;52.036;5.558;2022-08-19T09:14:15;20.90;86.20
67147;DHT22;54061;52.036;5.558;2022-08-19T09:16:42;21.20;85.30
67147;DHT22;54061;52.036;5.558;2022-08-19T09:19:08;21.50;85.70
67147;DHT22;54061;52.036;5.558;2022-08-19T09:21:33;22.10;83.30
67147;DHT22;54061;52.036;5.558;2022-08-19T09:24:00;22.50;81.30
67147;DHT22;54061;52.036;5.558;2022-08-19T09:26:26;22.80;80.60
67147;DHT22;54061;52.036;5.558;2022-08-19T09:28:52;23.20;79.70
67147;DHT22;54061;52.036;5.558;2022-08-19T09:31:19;23.40;76.30
67147;DHT22;54061;52.036;5.558;2022-08-19T09:33:46;23.20;76.20
67147;DHT22;54061;52.036;5.558;2022-08-19T09:36:12;22.90;77.40
67147;DHT22;54061;52.036;5.558;2022-08-19T09:38:38;22.80;78.30
67147;DHT22;54061;52.036;5.558;2022-08-19T09:41:11;22.80;77.60
67147;DHT22;54061;52.036;5.558;2022-08-19T09:43:37;22.90;77.30
67147;DHT22;54061;52.036;5.558;2022-08-19T09:46:03;23.20;76.30
67147;DHT22;54061;52.036;5.558;2022-08-19T09:48:32;23.40;76.00
67147;DHT22;54061;52.036;5.558;2022-08-19T09:51:30;23.70;77.30
67147;DHT22;54061;52.036;5.558;2022-08-19T09:53:49;23.80;74.40
67147;DHT22;54061;52.036;5.558;2022-08-19T09:56:16;23.70;76.20
67147;DHT22;54061;52.036;5.558;2022-08-19T09:58:42;24.10;73.90
67147;DHT22;54061;52.036;5.558;2022-08-19T10:01:08;24.30;73.10
67147;DHT22;54061;52.036;5.558;2022-08-19T10:03:34;24.20;71.90
67147;DHT22;54061;52.036;5.558;2022-08-19T10:06:00;24.30;74.50
67147;DHT22;54061;52.036;5.558;2022-08-19T10:08:30;24.40;72.10
67147;DHT22;54061;52.036;5.558;2022-08-19T10:10:56;24.80;72.10
67147;DHT22;54061;52.036;5.558;2022-08-19T10:13:23;24.90;67.00
67147;DHT22;54061;52.036;5.558;2022-08-19T10:15:52;24.80;68.40
67147;DHT22;54061;52.036;5.558;2022-08-19T10:18:18;24.70;69.10
67147;DHT22;54061;52.036;5.558;2022-08-19T10:20:44;24.70;71.50
67147;DHT22;54061;52.036;5.558;2022-08-19T10:23:10;25.20;71.70
67147;DHT22;54061;52.036;5.558;2022-08-19T10:25:36;25.40;72.70
67147;DHT22;54061;52.036;5.558;2022-08-19T10:28:03;25.10;69.60
67147;DHT22;54061;52.036;5.558;2022-08-19T10:30:28;24.90;71.80
67147;DHT22;54061;52.036;5.558;2022-08-19T10:32:54;25.00;70.70
67147;DHT22;54061;52.036;5.558;2022-08-19T10:35:19;25.20;72.70
67147;DHT22;54061;52.036;5.558;2022-08-19T10:37:45;25.60;66.60
67147;DHT22;54061;52.036;5.558;2022-08-19T10:40:10;25.30;67.20
67147;DHT22;54061;52.036;5.558;2022-08-19T10:42:36;24.70;69.70
67147;DHT22;54061;52.036;5.558;2022-08-19T10:45:02;24.60;71.40
67147;DHT22;54061;52.036;5.558;2022-08-19T10:47:28;24.40;71.70
67147;DHT22;54061;52.036;5.558;2022-08-19T10:49:54;24.50;73.00
67147;DHT22;54061;52.036;5.558;2022-08-19T10:52:39;24.60;73.20
67147;DHT22;54061;52.036;5.558;2022-08-19T10:55:05;24.80;73.30
67147;DHT22;54061;52.036;5.558;2022-08-19T10:57:50;25.10;69.50
67147;DHT22;54061;52.036;5.558;2022-08-19T11:00:15;25.40;70.80
67147;DHT22;54061;52.036;5.558;2022-08-19T11:02:41;25.90;66.40
67147;DHT22;54061;52.036;5.558;2022-08-19T11:05:07;26.10;68.00
67147;DHT22;54061;52.036;5.558;2022-08-19T11:07:34;26.20;65.30
67147;DHT22;54061;52.036;5.558;2022-08-19T11:10:01;26.10;68.50
67147;DHT22;54061;52.036;5.558;2022-08-19T11:12:28;26.30;68.10
67147;DHT22;54061;52.036;5.558;2022-08-19T11:14:53;26.50;69.30
67147;DHT22;54061;52.036;5.558;2022-08-19T11:17:19;26.60;64.70
67147;DHT22;54061;52.036;5.558;2022-08-19T11:19:45;26.40;69.00
67147;DHT22;54061;52.036;5.558;2022-08-19T11:22:13;26.70;67.00
67147;DHT22;54061;52.036;5.558;2022-08-19T11:24:39;27.00;65.90
67147;DHT22;54061;52.036;5.558;2022-08-19T11:27:06;26.90;64.00
67147;DHT22;54061;52.036;5.558;2022-08-19T11:29:32;26.70;63.60
67147;DHT22;54061;52.036;5.558;2022-08-19T11:32:00;26.70;65.30
67147;DHT22;54061;52.036;5.558;2022-08-19T11:34:27;26.60;65.30
67147;DHT22;54061;52.036;5.558;2022-08-19T11:36:53;26.50;68.40
67147;DHT22;54061;52.036;5.558;2022-08-19T11:39:23;26.30;68.60
67147;DHT22;54061;52.036;5.558;2022-08-19T11:41:49;26.10;65.90
67147;DHT22;54061;52.036;5.558;2022-08-19T11:44:14;25.90;67.70
67147;DHT22;54061;52.036;5.558;2022-08-19T11:46:41;26.00;66.20
67147;DHT22;54061;52.036;5.558;2022-08-19T11:49:06;26.10;66.80
67147;DHT22;54061;52.036;5.558;2022-08-19T11:51:32;26.10;66.00
67147;DHT22;54061;52.036;5.558;2022-08-19T11:53:59;26.00;67.10
67147;DHT22;54061;52.036;5.558;2022-08-19T11:56:25;26.00;66.70
67147;DHT22;54061;52.036;5.558;2022-08-19T11:58:51;25.70;67.30
67147;DHT22;54061;52.036;5.558;2022-08-19T12:01:18;25.50;69.90
67147;DHT22;54061;52.036;5.558;2022-08-19T12:03:45;25.90;70.00
67147;DHT22;54061;52.036;5.558;2022-08-19T12:06:13;26.30;70.40
67147;DHT22;54061;52.036;5.558;2022-08-19T12:08:40;26.50;67.50
67147;DHT22;54061;52.036;5.558;2022-08-19T12:11:05;26.20;65.10
67147;DHT22;54061;52.036;5.558;2022-08-19T12:13:33;25.70;66.30
67147;DHT22;54061;52.036;5.558;2022-08-19T12:15:59;25.60;67.60
67147;DHT22;54061;52.036;5.558;2022-08-19T12:18:25;25.70;69.40
67147;DHT22;54061;52.036;5.558;2022-08-19T12:20:51;26.00;69.60
67147;DHT22;54061;52.036;5.558;2022-08-19T12:23:17;26.20;68.30
67147;DHT22;54061;52.036;5.558;2022-08-19T12:25:43;26.30;68.10
67147;DHT22;54061;52.036;5.558;2022-08-19T12:28:15;26.30;65.90
67147;DHT22;54061;52.036;5.558;2022-08-19T12:30:41;25.90;66.80
67147;DHT22;54061;52.036;5.558;2022-08-19T12:33:07;25.80;67.70
67147;DHT22;54061;52.036;5.558;2022-08-19T12:35:33;25.80;68.00
67147;DHT22;54061;52.036;5.558;2022-08-19T12:37:58;25.90;67.70
67147;DHT22;54061;52.036;5.558;2022-08-19T12:40:24;26.00;65.90
67147;DHT22;54061;52.036;5.558;2022-08-19T12:42:50;25.90;67.60
67147;DHT22;54061;52.036;5.558;2022-08-19T12:45:16;26.10;66.00
67147;DHT22;54061;52.036;5.558;2022-08-19T12:47:41;26.10;66.80
67147;DHT22;54061;52.036;5.558;2022-08-19T12:50:07;26.00;66.00
67147;DHT22;54061;52.036;5.558;2022-08-19T12:52:34;25.90;66.90
67147;DHT22;54061;52.036;5.558;2022-08-19T12:55:01;26.00;67.10
67147;DHT22;54061;52.036;5.558;2022-08-19T12:57:27;26.00;66.60
67147;DHT22;54061;52.036;5.558;2022-08-19T12:59:53;26.00;66.20
67147;DHT22;54061;52.036;5.558;2022-08-19T13:02:19;26.00;66.20
67147;DHT22;54061;52.036;5.558;2022-08-19T13:04:44;26.10;67.90
67147;DHT22;54061;52.036;5.558;2022-08-19T13:07:10;26.10;68.30
67147;DHT22;54061;52.036;5.558;2022-08-19T13:09:36;26.00;66.20
67147;DHT22;54061;52.036;5.558;2022-08-19T13:12:02;25.70;67.20
67147;DHT22;54061;52.036;5.558;2022-08-19T13:14:28;25.40;68.00
67147;DHT22;54061;52.036;5.558;2022-08-19T13:16:56;25.20;69.10
67147;DHT22;54061;52.036;5.558;2022-08-19T13:19:22;25.20;69.10
67147;DHT22;54061;52.036;5.558;2022-08-19T13:21:49;25.10;70.00
67147;DHT22;54061;52.036;5.558;2022-08-19T13:24:14;25.00;72.80
67147;DHT22;54061;52.036;5.558;2022-08-19T13:26:40;25.10;73.00
67147;DHT22;54061;52.036;5.558;2022-08-19T13:29:06;25.30;73.20
67147;DHT22;54061;52.036;5.558;2022-08-19T13:31:50;25.20;72.40
67147;DHT22;54061;52.036;5.558;2022-08-19T13:34:34;25.00;71.60
67147;DHT22;54061;52.036;5.558;2022-08-19T13:37:01;24.70;73.00
67147;DHT22;54061;52.036;5.558;2022-08-19T13:39:28;24.60;72.90
67147;DHT22;54061;52.036;5.558;2022-08-19T13:41:54;24.70;73.30
67147;DHT22;54061;52.036;5.558;2022-08-19T13:44:19;24.70;73.60
67147;DHT22;54061;52.036;5.558;2022-08-19T13:46:45;24.60;73.60
67147;DHT22;54061;52.036;5.558;2022-08-19T13:49:11;24.60;73.70
67147;DHT22;54061;52.036;5.558;2022-08-19T13:51:38;24.70;74.30
67147;DHT22;54061;52.036;5.558;2022-08-19T13:54:05;24.80;73.80
67147;DHT22;54061;52.036;5.558;2022-08-19T13:56:30;25.10;73.80
67147;DHT22;54061;52.036;5.558;2022-08-19T13:58:56;25.00;72.50
67147;DHT22;54061;52.036;5.558;2022-08-19T14:01:22;24.80;73.10
67147;DHT22;54061;52.036;5.558;2022-08-19T14:03:48;24.70;73.40
67147;DHT22;54061;52.036;5.558;2022-08-19T14:06:13;24.70;73.60
67147;DHT22;54061;52.036;5.558;2022-08-19T14:08:39;24.70;73.40
67147;DHT22;54061;52.036;5.558;2022-08-19T14:11:07;24.70;74.10
67147;DHT22;54061;52.036;5.558;2022-08-19T14:13:33;24.60;74.20
67147;DHT22;54061;52.036;5.558;2022-08-19T14:15:59;24.50;73.90
67147;DHT22;54061;52.036;5.558;2022-08-19T14:18:24;24.60;74.00
67147;DHT22;54061;52.036;5.558;2022-08-19T14:20:50;24.70;73.50
67147;DHT22;54061;52.036;5.558;2022-08-19T14:23:16;24.60;74.30
67147;DHT22;54061;52.036;5.558;2022-08-19T14:25:42;24.60;79.70
67147;DHT22;54061;52.036;5.558;2022-08-19T14:28:08;24.40;79.40
67147;DHT22;54061;52.036;5.558;2022-08-19T14:30:34;24.10;80.50
67147;DHT22;54061;52.036;5.558;2022-08-19T14:33:00;23.70;83.60
67147;DHT22;54061;52.036;5.558;2022-08-19T14:35:27;23.50;84.70
67147;DHT22;54061;52.036;5.558;2022-08-19T14:37:52;23.30;83.80
67147;DHT22;54061;52.036;5.558;2022-08-19T14:40:21;23.20;88.00
67147;DHT22;54061;52.036;5.558;2022-08-19T14:42:47;23.10;86.10
67147;DHT22;54061;52.036;5.558;2022-08-19T14:45:13;22.90;86.70
67147;DHT22;54061;52.036;5.558;2022-08-19T14:47:39;22.80;87.60
67147;DHT22;54061;52.036;5.558;2022-08-19T14:50:05;22.70;87.40
67147;DHT22;54061;52.036;5.558;2022-08-19T14:52:31;22.80;86.40
67147;DHT22;54061;52.036;5.558;2022-08-19T14:54:57;22.80;87.70
67147;DHT22;54061;52.036;5.558;2022-08-19T14:57:22;22.90;86.50
67147;DHT22;54061;52.036;5.558;2022-08-19T14:59:48;23.00;85.70
67147;DHT22;54061;52.036;5.558;2022-08-19T15:02:13;22.90;86.80
67147;DHT22;54061;52.036;5.558;2022-08-19T15:04:39;22.80;88.00
67147;DHT22;54061;52.036;5.558;2022-08-19T15:07:05;22.80;89.60
67147;DHT22;54061;52.036;5.558;2022-08-19T15:09:31;22.80;86.60
67147;DHT22;54061;52.036;5.558;2022-08-19T15:11:56;22.80;87.10
67147;DHT22;54061;52.036;5.558;2022-08-19T15:14:24;22.90;87.90
67147;DHT22;54061;52.036;5.558;2022-08-19T15:16:49;22.90;87.20
67147;DHT22;54061;52.036;5.558;2022-08-19T15:19:15;22.80;86.70
67147;DHT22;54061;52.036;5.558;2022-08-19T15:21:40;22.80;90.00
67147;DHT22;54061;52.036;5.558;2022-08-19T15:24:06;22.70;89.10
67147;DHT22;54061;52.036;5.558;2022-08-19T15:26:31;22.50;89.80
67147;DHT22;54061;52.036;5.558;2022-08-19T15:28:57;22.40;90.50
67147;DHT22;54061;52.036;5.558;2022-08-19T15:31:24;22.40;89.30
67147;DHT22;54061;52.036;5.558;2022-08-19T15:33:50;22.60;88.40
67147;DHT22;54061;52.036;5.558;2022-08-19T15:36:16;22.70;87.30